createdAt,value
2017-04-26T00:00:00.559Z,1000.8
2017-04-26T00:01:02.385Z,1000.8
2017-04-26T00:02:04.388Z,1000.8
2017-04-26T00:03:06.195Z,1000.8
2017-04-26T00:04:07.990Z,1000.8
2017-04-26T00:05:09.787Z,1000.8
2017-04-26T00:06:11.581Z,1000.8
2017-04-26T00:07:13.374Z,1000.8
2017-04-26T00:08:15.463Z,1000.8
2017-04-26T00:09:17.301Z,1000.8
2017-04-26T00:10:19.135Z,1000.8
2017-04-26T00:11:20.931Z,1000.8
2017-04-26T00:12:22.724Z,1000.9
2017-04-26T00:13:24.855Z,1000.9
2017-04-26T00:14:27.652Z,1000.9
2017-04-26T00:15:29.503Z,1000.8
2017-04-26T00:16:31.500Z,1000.9
2017-04-26T00:17:33.309Z,1000.8
2017-04-26T00:18:35.116Z,1000.9
2017-04-26T00:19:36.907Z,1000.8
2017-04-26T00:20:38.705Z,1000.8
2017-04-26T00:21:40.839Z,1000.8
2017-04-26T00:22:42.657Z,1000.8
2017-04-26T00:23:44.474Z,1000.8
2017-04-26T00:24:46.274Z,1000.9
2017-04-26T00:25:48.076Z,1000.9
2017-04-26T00:26:49.868Z,1000.9
2017-04-26T00:27:51.671Z,1000.9
2017-04-26T00:28:53.487Z,1001
2017-04-26T00:29:55.286Z,1000.9
2017-04-26T00:30:57.450Z,1001
2017-04-26T00:31:59.245Z,1001
2017-04-26T00:33:01.405Z,1001
2017-04-26T00:34:03.212Z,1001
2017-04-26T00:35:05.029Z,1001
2017-04-26T00:36:07.199Z,1001
2017-04-26T00:37:09.017Z,1001
2017-04-26T00:38:11.148Z,1001
2017-04-26T00:39:13.280Z,1001
2017-04-26T00:40:15.414Z,1001
2017-04-26T00:41:17.548Z,1001
2017-04-26T00:42:19.360Z,1001
2017-04-26T00:43:21.176Z,1001
2017-04-26T00:44:22.990Z,1001
2017-04-26T00:45:24.926Z,1001
2017-04-26T00:46:26.713Z,1001.1
2017-04-26T00:47:28.546Z,1001
2017-04-26T00:48:30.341Z,1001.1
2017-04-26T00:49:32.156Z,1001
2017-04-26T00:50:33.945Z,1001.1
2017-04-26T00:51:35.741Z,1001.1
2017-04-26T00:52:37.540Z,1001.1
2017-04-26T00:53:39.668Z,1001.1
2017-04-26T00:54:41.503Z,1001.1
2017-04-26T00:55:43.301Z,1001.1
2017-04-26T00:56:45.107Z,1001.1
2017-04-26T00:57:46.913Z,1001.1
2017-04-26T00:58:48.705Z,1001.2
2017-04-26T00:59:50.505Z,1001.1
2017-04-26T01:00:52.300Z,1001.1
2017-04-26T01:01:54.098Z,1001.1
2017-04-26T01:02:55.890Z,1001.1
2017-04-26T01:03:57.686Z,1001.1
2017-04-26T01:04:59.487Z,1001.1
2017-04-26T01:06:01.278Z,1001.1
2017-04-26T01:07:03.079Z,1001
2017-04-26T01:08:05.158Z,1001.1
2017-04-26T01:09:07.147Z,1001.1
2017-04-26T01:10:09.146Z,1001.1
2017-04-26T01:11:11.281Z,1001.1
2017-04-26T01:12:13.135Z,1001.1
2017-04-26T01:13:15.127Z,1001.1
2017-04-26T01:14:17.327Z,1001.1
2017-04-26T01:15:19.515Z,1001.1
2017-04-26T01:16:21.376Z,1001.1
2017-04-26T01:17:23.173Z,1001.1
2017-04-26T01:18:24.975Z,1001.1
2017-04-26T01:19:26.769Z,1001.1
2017-04-26T01:20:28.564Z,1001.1
2017-04-26T01:21:30.362Z,1001.1
2017-04-26T01:22:32.187Z,1001.1
2017-04-26T01:23:33.981Z,1001.2
2017-04-26T01:24:35.772Z,1001.1
2017-04-26T01:25:37.571Z,1001.2
2017-04-26T01:26:39.366Z,1001.2
2017-04-26T01:27:41.159Z,1001.2
2017-04-26T01:28:42.982Z,1001.2
2017-04-26T01:29:45.112Z,1001.3
2017-04-26T01:30:46.917Z,1001.3
2017-04-26T01:31:48.709Z,1001.3
2017-04-26T01:32:50.499Z,1001.3
2017-04-26T01:33:52.319Z,1001.3
2017-04-26T01:34:54.117Z,1001.3
2017-04-26T01:35:56.266Z,1001.3
2017-04-26T01:36:58.088Z,1001.3
2017-04-26T01:37:59.888Z,1001.3
2017-04-26T01:39:01.680Z,1001.3
2017-04-26T01:40:03.824Z,1001.3
2017-04-26T01:41:05.959Z,1001.3
2017-04-26T01:42:07.747Z,1001.3
2017-04-26T01:43:09.575Z,1001.3
2017-04-26T01:44:11.704Z,1001.3
2017-04-26T01:45:13.501Z,1001.3
2017-04-26T01:46:15.295Z,1001.4
2017-04-26T01:47:17.087Z,1001.4
2017-04-26T01:48:18.885Z,1001.4
2017-04-26T01:49:20.682Z,1001.4
2017-04-26T01:50:22.847Z,1001.4
2017-04-26T01:51:24.639Z,1001.4
2017-04-26T01:52:26.435Z,1001.4
2017-04-26T01:53:28.228Z,1001.3
2017-04-26T01:54:30.366Z,1001.3
2017-04-26T01:55:32.154Z,1001.3
2017-04-26T01:56:33.955Z,1001.3
2017-04-26T01:57:36.424Z,1001.4
2017-04-26T01:58:38.225Z,1001.3
2017-04-26T01:59:40.016Z,1001.3
2017-04-26T02:00:41.810Z,1001.3
2017-04-26T02:01:43.611Z,1001.3
2017-04-26T02:02:45.406Z,1001.3
2017-04-26T02:03:47.532Z,1001.3
2017-04-26T02:04:49.332Z,1001.4
2017-04-26T02:05:51.128Z,1001.4
2017-04-26T02:06:52.920Z,1001.4
2017-04-26T02:07:54.716Z,1001.4
2017-04-26T02:08:56.503Z,1001.4
2017-04-26T02:09:58.636Z,1001.4
2017-04-26T02:11:00.779Z,1001.4
2017-04-26T02:12:02.918Z,1001.4
2017-04-26T02:13:04.735Z,1001.4
2017-04-26T02:14:06.531Z,1001.4
2017-04-26T02:15:08.327Z,1001.4
2017-04-26T02:16:10.119Z,1001.5
2017-04-26T02:17:11.914Z,1001.5
2017-04-26T02:18:13.714Z,1001.5
2017-04-26T02:19:15.511Z,1001.5
2017-04-26T02:20:17.648Z,1001.5
2017-04-26T02:21:19.446Z,1001.5
2017-04-26T02:22:21.575Z,1001.5
2017-04-26T02:23:23.371Z,1001.5
2017-04-26T02:24:25.513Z,1001.6
2017-04-26T02:25:27.642Z,1001.5
2017-04-26T02:26:29.439Z,1001.5
2017-04-26T02:27:31.588Z,1001.5
2017-04-26T02:28:33.378Z,1001.5
2017-04-26T02:29:35.175Z,1001.6
2017-04-26T02:30:37.306Z,1001.6
2017-04-26T02:31:39.097Z,1001.5
2017-04-26T02:32:40.891Z,1001.6
2017-04-26T02:33:42.696Z,1001.5
2017-04-26T02:34:45.174Z,1001.6
2017-04-26T02:35:46.971Z,1001.5
2017-04-26T02:36:48.768Z,1001.6
2017-04-26T02:37:50.561Z,1001.6
2017-04-26T02:38:52.358Z,1001.6
2017-04-26T02:39:54.497Z,1001.6
2017-04-26T02:40:56.292Z,1001.5
2017-04-26T02:41:58.088Z,1001.5
2017-04-26T02:42:59.899Z,1001.5
2017-04-26T02:44:01.696Z,1001.5
2017-04-26T02:45:03.486Z,1001.5
2017-04-26T02:46:05.284Z,1001.5
2017-04-26T02:47:07.073Z,1001.5
2017-04-26T02:48:08.868Z,1001.5
2017-04-26T02:49:11.004Z,1001.5
2017-04-26T02:50:12.795Z,1001.5
2017-04-26T02:51:14.596Z,1001.6
2017-04-26T02:52:16.388Z,1001.6
2017-04-26T02:53:18.187Z,1001.6
2017-04-26T02:54:19.979Z,1001.6
2017-04-26T02:55:21.767Z,1001.6
2017-04-26T02:56:23.557Z,1001.6
2017-04-26T02:57:25.352Z,1001.6
2017-04-26T02:58:27.146Z,1001.6
2017-04-26T02:59:29.612Z,1001.6
2017-04-26T03:00:31.403Z,1001.7
2017-04-26T03:01:33.199Z,1001.7
2017-04-26T03:02:34.994Z,1001.6
2017-04-26T03:03:36.790Z,1001.6
2017-04-26T03:04:38.929Z,1001.7
2017-04-26T03:05:40.721Z,1001.6
2017-04-26T03:06:42.514Z,1001.7
2017-04-26T03:07:44.307Z,1001.7
2017-04-26T03:08:46.102Z,1001.7
2017-04-26T03:09:47.894Z,1001.7
2017-04-26T03:10:49.690Z,1001.7
2017-04-26T03:11:51.485Z,1001.7
2017-04-26T03:12:53.276Z,1001.7
2017-04-26T03:13:55.070Z,1001.7
2017-04-26T03:14:57.206Z,1001.7
2017-04-26T03:15:59.000Z,1001.7
2017-04-26T03:17:00.797Z,1001.8
2017-04-26T03:18:02.587Z,1001.7
2017-04-26T03:19:04.720Z,1001.7
2017-04-26T03:20:06.518Z,1001.7
2017-04-26T03:21:08.308Z,1001.7
2017-04-26T03:22:10.105Z,1001.8
2017-04-26T03:23:12.235Z,1001.7
2017-04-26T03:24:14.033Z,1001.7
2017-04-26T03:25:16.179Z,1001.8
2017-04-26T03:26:17.971Z,1001.7
2017-04-26T03:27:19.769Z,1001.8
2017-04-26T03:28:21.899Z,1001.8
2017-04-26T03:29:24.386Z,1001.8
2017-04-26T03:30:26.185Z,1001.8
2017-04-26T03:31:27.973Z,1001.8
2017-04-26T03:32:30.105Z,1001.7
2017-04-26T03:33:31.896Z,1001.8
2017-04-26T03:34:33.696Z,1001.8
2017-04-26T03:35:35.487Z,1001.8
2017-04-26T03:36:37.280Z,1001.7
2017-04-26T03:37:39.077Z,1001.8
2017-04-26T03:38:40.873Z,1001.7
2017-04-26T03:39:42.668Z,1001.7
2017-04-26T03:40:44.464Z,1001.8
2017-04-26T03:41:46.258Z,1001.8
2017-04-26T03:42:48.072Z,1001.8
2017-04-26T03:43:50.204Z,1001.8
2017-04-26T03:44:51.995Z,1001.8
2017-04-26T03:45:53.789Z,1001.8
2017-04-26T03:46:55.582Z,1001.9
2017-04-26T03:47:57.379Z,1001.8
2017-04-26T03:48:59.512Z,1001.8
2017-04-26T03:50:01.305Z,1001.8
2017-04-26T03:51:03.100Z,1001.8
2017-04-26T03:52:04.897Z,1001.8
2017-04-26T03:53:06.691Z,1001.8
2017-04-26T03:54:08.480Z,1001.8
2017-04-26T03:55:10.273Z,1001.8
2017-04-26T03:56:12.070Z,1001.8
2017-04-26T03:57:14.211Z,1001.8
2017-04-26T03:58:16.002Z,1001.8
2017-04-26T03:59:17.794Z,1001.9
2017-04-26T04:00:19.922Z,1001.9
2017-04-26T04:01:21.715Z,1001.9
2017-04-26T04:02:23.512Z,1001.9
2017-04-26T04:03:25.303Z,1001.9
2017-04-26T04:04:27.102Z,1001.9
2017-04-26T04:05:28.897Z,1001.8
2017-04-26T04:06:30.695Z,1001.9
2017-04-26T04:07:32.488Z,1001.9
2017-04-26T04:08:34.288Z,1001.9
2017-04-26T04:09:36.081Z,1001.9
2017-04-26T04:10:37.878Z,1001.9
2017-04-26T04:11:39.668Z,1001.9
2017-04-26T04:12:41.465Z,1001.9
2017-04-26T04:13:43.258Z,1002
2017-04-26T04:14:45.398Z,1002
2017-04-26T04:15:47.198Z,1002
2017-04-26T04:16:48.990Z,1002
2017-04-26T04:17:50.782Z,1002
2017-04-26T04:18:52.914Z,1001.9
2017-04-26T04:19:54.711Z,1002
2017-04-26T04:20:56.851Z,1001.9
2017-04-26T04:21:58.646Z,1001.9
2017-04-26T04:23:00.449Z,1002
2017-04-26T04:24:02.915Z,1002
2017-04-26T04:25:04.716Z,1002
2017-04-26T04:26:06.507Z,1002
2017-04-26T04:27:08.301Z,1002.1
2017-04-26T04:28:10.095Z,1002.1
2017-04-26T04:29:11.892Z,1002
2017-04-26T04:30:13.686Z,1002
2017-04-26T04:31:15.475Z,1002.1
2017-04-26T04:32:17.267Z,1002
2017-04-26T04:33:19.085Z,1002
2017-04-26T04:34:20.880Z,1002.1
2017-04-26T04:35:23.013Z,1002.1
2017-04-26T04:36:24.827Z,1002.1
2017-04-26T04:37:26.616Z,1002.1
2017-04-26T04:38:28.411Z,1002
2017-04-26T04:39:30.207Z,1002.1
2017-04-26T04:40:32.345Z,1002.1
2017-04-26T04:41:34.144Z,1002.1
2017-04-26T04:42:35.940Z,1002.1
2017-04-26T04:43:37.733Z,1002.1
2017-04-26T04:44:40.554Z,1002
2017-04-26T04:45:42.347Z,1002.1
2017-04-26T04:46:44.144Z,1002
2017-04-26T04:47:46.295Z,1002.1
2017-04-26T04:48:48.085Z,1002
2017-04-26T04:49:50.227Z,1002.1
2017-04-26T04:50:52.016Z,1002.1
2017-04-26T04:51:53.817Z,1002.1
2017-04-26T04:52:55.607Z,1002.1
2017-04-26T04:53:57.400Z,1002
2017-04-26T04:54:59.226Z,1002.1
2017-04-26T04:56:01.016Z,1002
2017-04-26T04:57:02.814Z,1002.1
2017-04-26T04:58:04.906Z,1002.1
2017-04-26T04:59:06.709Z,1002.1
2017-04-26T05:00:08.499Z,1002.1
2017-04-26T05:01:10.295Z,1002
2017-04-26T05:02:12.115Z,1002.1
2017-04-26T05:03:13.911Z,1002.1
2017-04-26T05:04:15.710Z,1002.2
2017-04-26T05:05:17.500Z,1002.2
2017-04-26T05:06:19.302Z,1002.2
2017-04-26T05:07:21.098Z,1002.2
2017-04-26T05:08:23.275Z,1002.2
2017-04-26T05:09:25.069Z,1002.3
2017-04-26T05:10:26.866Z,1002.2
2017-04-26T05:11:28.657Z,1002.3
2017-04-26T05:12:30.454Z,1002.3
2017-04-26T05:13:32.244Z,1002.3
2017-04-26T05:14:34.041Z,1002.3
2017-04-26T05:15:35.839Z,1002.3
2017-04-26T05:16:37.630Z,1002.3
2017-04-26T05:17:39.763Z,1002.3
2017-04-26T05:18:41.561Z,1002.3
2017-04-26T05:19:44.039Z,1002.3
2017-04-26T05:20:45.831Z,1002.3
2017-04-26T05:21:47.622Z,1002.3
2017-04-26T05:22:49.414Z,1002.4
2017-04-26T05:23:51.209Z,1002.4
2017-04-26T05:24:53.007Z,1002.4
2017-04-26T05:25:55.140Z,1002.4
2017-04-26T05:26:56.940Z,1002.4
2017-04-26T05:27:58.743Z,1002.4
2017-04-26T05:29:00.541Z,1002.5
2017-04-26T05:30:02.668Z,1002.5
2017-04-26T05:31:04.483Z,1002.5
2017-04-26T05:32:06.969Z,1002.5
2017-04-26T05:33:09.103Z,1002.5
2017-04-26T05:34:11.238Z,1002.5
2017-04-26T05:35:13.027Z,1002.5
2017-04-26T05:36:15.162Z,1002.5
2017-04-26T05:37:16.953Z,1002.5
2017-04-26T05:38:18.750Z,1002.5
2017-04-26T05:39:21.212Z,1002.5
2017-04-26T05:40:23.359Z,1002.5
2017-04-26T05:41:25.488Z,1002.5
2017-04-26T05:42:27.295Z,1002.5
2017-04-26T05:43:29.084Z,1002.5
2017-04-26T05:44:30.882Z,1002.5
2017-04-26T05:45:32.683Z,1002.5
2017-04-26T05:46:34.475Z,1002.6
2017-04-26T05:47:36.274Z,1002.6
2017-04-26T05:48:38.419Z,1002.6
2017-04-26T05:49:40.222Z,1002.5
2017-04-26T05:50:42.015Z,1002.6
2017-04-26T05:51:43.808Z,1002.6
2017-04-26T05:52:45.595Z,1002.6
2017-04-26T05:53:47.391Z,1002.6
2017-04-26T05:54:49.185Z,1002.7
2017-04-26T05:55:50.981Z,1002.6
2017-04-26T05:56:52.782Z,1002.6
2017-04-26T05:57:54.605Z,1002.6
2017-04-26T05:58:56.747Z,1002.6
2017-04-26T05:59:58.549Z,1002.6
2017-04-26T06:01:00.344Z,1002.6
2017-04-26T06:02:02.141Z,1002.7
2017-04-26T06:03:03.942Z,1002.7
2017-04-26T06:04:05.738Z,1002.7
2017-04-26T06:05:07.538Z,1002.7
2017-04-26T06:06:09.334Z,1002.7
2017-04-26T06:07:11.133Z,1002.7
2017-04-26T06:08:12.929Z,1002.7
2017-04-26T06:09:14.726Z,1002.7
2017-04-26T06:10:16.523Z,1002.7
2017-04-26T06:11:18.316Z,1002.7
2017-04-26T06:12:20.116Z,1002.7
2017-04-26T06:13:21.914Z,1002.7
2017-04-26T06:14:23.712Z,1002.8
2017-04-26T06:15:25.512Z,1002.8
2017-04-26T06:16:27.311Z,1002.8
2017-04-26T06:17:29.111Z,1002.7
2017-04-26T06:18:31.025Z,1002.7
2017-04-26T06:19:33.079Z,1002.7
2017-04-26T06:20:35.058Z,1002.7
2017-04-26T06:21:36.914Z,1002.7
2017-04-26T06:22:38.970Z,1002.8
2017-04-26T06:23:40.958Z,1002.8
2017-04-26T06:24:43.461Z,1002.8
2017-04-26T06:25:45.258Z,1002.8
2017-04-26T06:26:47.064Z,1002.8
2017-04-26T06:27:48.860Z,1002.8
2017-04-26T06:28:50.663Z,1002.8
2017-04-26T06:29:52.805Z,1002.8
2017-04-26T06:30:54.605Z,1002.8
2017-04-26T06:31:56.398Z,1002.8
2017-04-26T06:32:58.306Z,1002.8
2017-04-26T06:34:00.227Z,1002.8
2017-04-26T06:35:02.340Z,1002.7
2017-04-26T06:36:04.242Z,1002.8
2017-04-26T06:37:06.254Z,1002.8
2017-04-26T06:38:08.509Z,1002.8
2017-04-26T06:39:10.482Z,1002.8
2017-04-26T06:40:12.624Z,1002.8
2017-04-26T06:41:14.424Z,1002.8
2017-04-26T06:42:16.224Z,1002.8
2017-04-26T06:43:18.354Z,1002.8
2017-04-26T06:44:20.504Z,1002.8
2017-04-26T06:45:22.305Z,1002.7
2017-04-26T06:46:24.104Z,1002.7
2017-04-26T06:47:25.898Z,1002.8
2017-04-26T06:48:27.698Z,1002.8
2017-04-26T06:49:29.499Z,1002.8
2017-04-26T06:50:31.297Z,1002.8
2017-04-26T06:51:33.100Z,1002.8
2017-04-26T06:52:34.897Z,1002.8
2017-04-26T06:53:36.701Z,1002.8
2017-04-26T06:54:38.499Z,1002.8
2017-04-26T06:55:40.334Z,1002.8
2017-04-26T06:56:42.135Z,1002.9
2017-04-26T06:57:44.281Z,1002.8
2017-04-26T06:58:46.429Z,1002.8
2017-04-26T06:59:48.231Z,1002.8
2017-04-26T07:00:50.042Z,1002.9
2017-04-26T07:01:51.836Z,1002.8
2017-04-26T07:02:53.633Z,1002.8
2017-04-26T07:03:55.432Z,1002.9
2017-04-26T07:04:57.229Z,1002.9
2017-04-26T07:05:59.036Z,1002.9
2017-04-26T07:07:00.834Z,1002.9
2017-04-26T07:08:02.638Z,1002.9
2017-04-26T07:09:04.429Z,1002.9
2017-04-26T07:10:06.235Z,1002.9
2017-04-26T07:11:08.035Z,1002.9
2017-04-26T07:12:09.834Z,1003
2017-04-26T07:13:11.633Z,1003
2017-04-26T07:14:13.451Z,1003
2017-04-26T07:15:15.249Z,1003
2017-04-26T07:16:17.075Z,1003
2017-04-26T07:17:18.891Z,1002.9
2017-04-26T07:18:20.690Z,1003
2017-04-26T07:19:22.840Z,1003
2017-04-26T07:20:24.632Z,1003
2017-04-26T07:21:26.434Z,1003
2017-04-26T07:22:28.233Z,1003
2017-04-26T07:23:30.035Z,1003
2017-04-26T07:24:31.841Z,1003
2017-04-26T07:25:33.646Z,1003
2017-04-26T07:26:35.444Z,1003
2017-04-26T07:27:37.244Z,1003
2017-04-26T07:28:39.039Z,1003
2017-04-26T07:29:40.840Z,1003
2017-04-26T07:30:42.648Z,1003
2017-04-26T07:31:44.793Z,1003.1
2017-04-26T07:32:46.595Z,1003
2017-04-26T07:33:48.731Z,1003.1
2017-04-26T07:34:50.869Z,1003
2017-04-26T07:35:52.667Z,1003
2017-04-26T07:36:54.469Z,1003.1
2017-04-26T07:37:56.268Z,1003.1
2017-04-26T07:38:58.406Z,1003
2017-04-26T07:40:00.208Z,1003
2017-04-26T07:41:02.008Z,1003.1
2017-04-26T07:42:03.806Z,1003.1
2017-04-26T07:43:05.960Z,1003.1
2017-04-26T07:44:07.761Z,1003.1
2017-04-26T07:45:09.566Z,1003.1
2017-04-26T07:46:11.368Z,1003.1
2017-04-26T07:47:13.176Z,1003.1
2017-04-26T07:48:14.973Z,1003.1
2017-04-26T07:49:16.782Z,1003.1
2017-04-26T07:50:18.597Z,1003.1
2017-04-26T07:51:20.406Z,1003.1
2017-04-26T07:52:22.546Z,1003.2
2017-04-26T07:53:24.350Z,1003.2
2017-04-26T07:54:26.149Z,1003.1
2017-04-26T07:55:27.958Z,1003.1
2017-04-26T07:56:29.758Z,1003.1
2017-04-26T07:57:31.560Z,1003.1
2017-04-26T07:58:33.361Z,1003.1
2017-04-26T07:59:35.164Z,1003.1
2017-04-26T08:00:36.969Z,1003.2
2017-04-26T08:01:38.768Z,1003.2
2017-04-26T08:02:40.573Z,1003.2
2017-04-26T08:03:42.372Z,1003.2
2017-04-26T08:04:44.174Z,1003.2
2017-04-26T08:05:45.986Z,1003.2
2017-04-26T08:06:47.787Z,1003.2
2017-04-26T08:07:49.594Z,1003.2
2017-04-26T08:08:51.394Z,1003.3
2017-04-26T08:09:53.199Z,1003.3
2017-04-26T08:10:54.997Z,1003.3
2017-04-26T08:11:56.799Z,1003.3
2017-04-26T08:12:58.602Z,1003.2
2017-04-26T08:14:00.403Z,1003.2
2017-04-26T08:15:02.215Z,1003.2
2017-04-26T08:16:04.358Z,1003.3
2017-04-26T08:17:06.165Z,1003.3
2017-04-26T08:18:07.967Z,1003.2
2017-04-26T08:19:09.797Z,1003.2
2017-04-26T08:20:11.930Z,1003.2
2017-04-26T08:21:13.739Z,1003.2
2017-04-26T08:22:15.536Z,1003.3
2017-04-26T08:23:17.341Z,1003.2
2017-04-26T08:24:19.142Z,1003.3
2017-04-26T08:25:20.941Z,1003.4
2017-04-26T08:26:22.743Z,1003.3
2017-04-26T08:27:24.550Z,1003.3
2017-04-26T08:28:26.356Z,1003.3
2017-04-26T08:29:28.162Z,1003.3
2017-04-26T08:30:29.960Z,1003.4
2017-04-26T08:31:31.764Z,1003.4
2017-04-26T08:32:33.570Z,1003.3
2017-04-26T08:33:35.373Z,1003.3
2017-04-26T08:34:37.179Z,1003.3
2017-04-26T08:35:38.984Z,1003.3
2017-04-26T08:36:40.788Z,1003.3
2017-04-26T08:37:42.591Z,1003.3
2017-04-26T08:38:44.398Z,1003.3
2017-04-26T08:39:46.536Z,1003.4
2017-04-26T08:40:48.345Z,1003.4
2017-04-26T08:41:50.489Z,1003.4
2017-04-26T08:42:52.299Z,1003.4
2017-04-26T08:43:54.104Z,1003.4
2017-04-26T08:44:55.931Z,1003.4
2017-04-26T08:45:57.738Z,1003.5
2017-04-26T08:46:59.563Z,1003.4
2017-04-26T08:48:01.372Z,1003.4
2017-04-26T08:49:03.177Z,1003.4
2017-04-26T08:50:05.315Z,1003.4
2017-04-26T08:51:07.129Z,1003.5
2017-04-26T08:52:08.932Z,1003.5
2017-04-26T08:53:10.738Z,1003.4
2017-04-26T08:54:12.538Z,1003.5
2017-04-26T08:55:14.343Z,1003.5
2017-04-26T08:56:16.148Z,1003.5
2017-04-26T08:57:17.949Z,1003.5
2017-04-26T08:58:20.094Z,1003.5
2017-04-26T08:59:21.896Z,1003.5
2017-04-26T09:00:23.709Z,1003.5
2017-04-26T09:01:25.845Z,1003.6
2017-04-26T09:02:27.654Z,1003.6
2017-04-26T09:03:29.455Z,1003.6
2017-04-26T09:04:31.268Z,1003.6
2017-04-26T09:05:33.072Z,1003.6
2017-04-26T09:06:34.882Z,1003.6
2017-04-26T09:07:36.687Z,1003.6
2017-04-26T09:08:38.493Z,1003.6
2017-04-26T09:09:40.319Z,1003.6
2017-04-26T09:10:42.130Z,1003.6
2017-04-26T09:11:43.942Z,1003.5
2017-04-26T09:12:46.088Z,1003.6
2017-04-26T09:13:47.895Z,1003.6
2017-04-26T09:14:50.040Z,1003.6
2017-04-26T09:15:51.844Z,1003.6
2017-04-26T09:16:53.649Z,1003.6
2017-04-26T09:17:55.455Z,1003.6
2017-04-26T09:18:57.604Z,1003.6
2017-04-26T09:19:59.406Z,1003.6
2017-04-26T09:21:01.243Z,1003.7
2017-04-26T09:22:03.051Z,1003.6
2017-04-26T09:23:04.863Z,1003.6
2017-04-26T09:24:06.676Z,1003.6
2017-04-26T09:25:08.490Z,1003.7
2017-04-26T09:26:10.306Z,1003.7
2017-04-26T09:27:12.116Z,1003.6
2017-04-26T09:28:13.929Z,1003.7
2017-04-26T09:29:15.743Z,1003.6
2017-04-26T09:30:17.554Z,1003.6
2017-04-26T09:31:19.368Z,1003.7
2017-04-26T09:32:21.177Z,1003.6
2017-04-26T09:33:23.677Z,1003.7
2017-04-26T09:34:25.492Z,1003.7
2017-04-26T09:35:27.308Z,1003.6
2017-04-26T09:36:29.115Z,1003.6
2017-04-26T09:37:30.933Z,1003.6
2017-04-26T09:38:32.746Z,1003.6
2017-04-26T09:39:34.562Z,1003.6
2017-04-26T09:40:36.370Z,1003.6
2017-04-26T09:41:38.188Z,1003.6
2017-04-26T09:42:40.002Z,1003.6
2017-04-26T09:43:41.821Z,1003.6
2017-04-26T09:44:43.630Z,1003.6
2017-04-26T09:45:45.443Z,1003.6
2017-04-26T09:46:47.257Z,1003.6
2017-04-26T09:47:49.067Z,1003.6
2017-04-26T09:48:50.878Z,1003.7
2017-04-26T09:49:52.692Z,1003.6
2017-04-26T09:50:54.520Z,1003.6
2017-04-26T09:51:56.332Z,1003.6
2017-04-26T09:52:58.152Z,1003.6
2017-04-26T09:53:59.963Z,1003.6
2017-04-26T09:55:01.784Z,1003.7
2017-04-26T09:56:03.604Z,1003.7
2017-04-26T09:57:05.428Z,1003.7
2017-04-26T09:58:07.242Z,1003.7
2017-04-26T09:59:09.059Z,1003.7
2017-04-26T10:00:10.877Z,1003.6
2017-04-26T10:01:12.692Z,1003.7
2017-04-26T10:02:14.501Z,1003.6
2017-04-26T10:03:16.338Z,1003.6
2017-04-26T10:04:18.153Z,1003.7
2017-04-26T10:05:19.970Z,1003.7
2017-04-26T10:06:21.784Z,1003.7
2017-04-26T10:07:23.931Z,1003.6
2017-04-26T10:08:25.753Z,1003.6
2017-04-26T10:09:27.572Z,1003.6
2017-04-26T10:10:29.734Z,1003.6
2017-04-26T10:11:31.888Z,1003.6
2017-04-26T10:12:34.049Z,1003.6
2017-04-26T10:13:35.856Z,1003.6
2017-04-26T10:15:08.111Z,1003.6
2017-04-26T10:16:09.926Z,1003.6
2017-04-26T10:17:11.739Z,1003.5
2017-04-26T10:18:13.546Z,1003.5
2017-04-26T10:19:15.365Z,1003.5
2017-04-26T10:20:17.172Z,1003.4
2017-04-26T10:21:18.986Z,1003.4
2017-04-26T10:22:20.802Z,1003.5
2017-04-26T10:23:22.617Z,1003.4
2017-04-26T10:24:24.433Z,1003.4
2017-04-26T10:25:26.253Z,1003.4
2017-04-26T10:26:28.071Z,1003.5
2017-04-26T10:27:30.221Z,1003.4
2017-04-26T10:28:47.691Z,1003.4
2017-04-26T10:29:49.502Z,1003.5
2017-04-26T10:31:03.113Z,1003.4
2017-04-26T10:32:04.929Z,1003.5
2017-04-26T10:33:06.752Z,1003.5
2017-04-26T10:34:08.570Z,1003.4
2017-04-26T10:35:10.390Z,1003.4
2017-04-26T10:36:12.285Z,1003.4
2017-04-26T10:37:14.371Z,1003.5
2017-04-26T10:38:16.189Z,1003.5
2017-04-26T10:39:18.004Z,1003.5
2017-04-26T10:40:19.821Z,1003.4
2017-04-26T10:41:21.635Z,1003.5
2017-04-26T10:42:23.447Z,1003.5
2017-04-26T10:43:25.265Z,1003.5
2017-04-26T10:44:27.084Z,1003.5
2017-04-26T10:45:29.235Z,1003.5
2017-04-26T10:46:31.391Z,1003.5
2017-04-26T10:47:33.211Z,1003.5
2017-04-26T10:48:35.027Z,1003.5
2017-04-26T10:49:36.842Z,1003.6
2017-04-26T10:50:38.658Z,1003.6
2017-04-26T10:51:40.478Z,1003.6
2017-04-26T10:52:42.288Z,1003.6
2017-04-26T10:53:44.102Z,1003.6
2017-04-26T10:54:45.920Z,1003.6
2017-04-26T10:55:47.737Z,1003.6
2017-04-26T10:56:49.553Z,1003.6
2017-04-26T10:57:51.371Z,1003.6
2017-04-26T10:58:53.188Z,1003.7
2017-04-26T10:59:55.339Z,1003.7
2017-04-26T11:00:57.151Z,1003.6
2017-04-26T11:01:58.966Z,1003.7
2017-04-26T11:03:00.782Z,1003.7
2017-04-26T11:04:02.595Z,1003.7
2017-04-26T11:05:04.414Z,1003.7
2017-04-26T11:06:06.219Z,1003.7
2017-04-26T11:07:08.038Z,1003.7
2017-04-26T11:08:09.846Z,1003.7
2017-04-26T11:09:11.666Z,1003.7
2017-04-26T11:10:13.470Z,1003.7
2017-04-26T11:11:15.285Z,1003.7
2017-04-26T11:12:17.431Z,1003.8
2017-04-26T11:13:19.241Z,1003.8
2017-04-26T11:14:21.052Z,1003.8
2017-04-26T11:15:22.859Z,1003.8
2017-04-26T11:16:24.664Z,1003.8
2017-04-26T11:17:26.476Z,1003.8
2017-04-26T11:18:28.282Z,1003.8
2017-04-26T11:19:30.093Z,1003.8
2017-04-26T11:20:31.900Z,1003.9
2017-04-26T11:21:33.712Z,1003.8
2017-04-26T11:22:35.533Z,1003.9
2017-04-26T11:23:37.346Z,1003.8
2017-04-26T11:24:39.152Z,1003.8
2017-04-26T11:25:40.964Z,1003.9
2017-04-26T11:26:42.773Z,1003.9
2017-04-26T11:27:44.578Z,1003.9
2017-04-26T11:28:46.384Z,1003.9
2017-04-26T11:29:48.546Z,1003.9
2017-04-26T11:30:50.353Z,1003.8
2017-04-26T11:31:52.160Z,1003.8
2017-04-26T11:32:54.303Z,1003.9
2017-04-26T11:33:56.113Z,1003.9
2017-04-26T11:34:57.945Z,1003.9
2017-04-26T11:35:59.754Z,1003.9
2017-04-26T11:37:01.902Z,1004
2017-04-26T11:38:03.714Z,1004
2017-04-26T11:39:05.519Z,1003.9
2017-04-26T11:40:07.329Z,1004
2017-04-26T11:41:09.142Z,1003.9
2017-04-26T11:42:10.959Z,1004
2017-04-26T11:43:13.115Z,1004
2017-04-26T11:44:14.919Z,1004
2017-04-26T11:45:16.725Z,1004
2017-04-26T11:46:18.539Z,1004
2017-04-26T11:47:20.342Z,1004
2017-04-26T11:48:22.150Z,1004
2017-04-26T11:49:23.953Z,1004
2017-04-26T11:50:26.438Z,1004.1
2017-04-26T11:51:28.574Z,1004.1
2017-04-26T11:52:30.382Z,1004.1
2017-04-26T11:53:32.190Z,1004.1
2017-04-26T11:54:33.997Z,1004
2017-04-26T11:55:35.814Z,1004
2017-04-26T11:56:37.618Z,1004
2017-04-26T11:57:39.421Z,1004.1
2017-04-26T11:58:41.232Z,1004.1
2017-04-26T11:59:43.047Z,1004
2017-04-26T12:00:45.191Z,1004
2017-04-26T12:01:47.327Z,1004
2017-04-26T12:02:49.475Z,1004
2017-04-26T12:03:51.286Z,1004
2017-04-26T12:04:53.111Z,1004
2017-04-26T12:05:54.924Z,1004
2017-04-26T12:06:56.728Z,1004
2017-04-26T12:07:58.539Z,1004
2017-04-26T12:09:00.345Z,1004
2017-04-26T12:10:02.496Z,1003.9
2017-04-26T12:11:04.307Z,1004
2017-04-26T12:12:06.121Z,1004
2017-04-26T12:13:07.925Z,1003.9
2017-04-26T12:14:09.739Z,1003.8
2017-04-26T12:15:11.543Z,1003.8
2017-04-26T12:16:13.349Z,1003.8
2017-04-26T12:17:15.170Z,1003.8
2017-04-26T12:18:16.990Z,1003.8
2017-04-26T12:19:18.802Z,1003.8
2017-04-26T12:20:20.612Z,1003.8
2017-04-26T12:21:22.428Z,1003.8
2017-04-26T12:22:24.245Z,1003.9
2017-04-26T12:23:26.395Z,1003.9
2017-04-26T12:24:28.217Z,1003.9
2017-04-26T12:25:30.025Z,1003.9
2017-04-26T12:26:31.843Z,1003.9
2017-04-26T12:27:33.654Z,1004
2017-04-26T12:28:35.470Z,1004
2017-04-26T12:29:37.284Z,1004
2017-04-26T12:30:39.446Z,1004
2017-04-26T12:31:41.259Z,1004
2017-04-26T12:32:43.069Z,1004
2017-04-26T12:33:44.890Z,1003.9
2017-04-26T12:34:46.697Z,1003.8
2017-04-26T12:35:48.521Z,1003.9
2017-04-26T12:36:50.699Z,1003.9
2017-04-26T12:37:52.505Z,1004
2017-04-26T12:38:54.672Z,1003.9
2017-04-26T12:39:56.813Z,1004
2017-04-26T12:40:58.632Z,1004
2017-04-26T12:42:00.448Z,1004
2017-04-26T12:43:02.257Z,1004
2017-04-26T12:44:04.073Z,1003.9
2017-04-26T12:45:05.890Z,1004
2017-04-26T12:46:07.702Z,1004
2017-04-26T12:47:09.520Z,1004
2017-04-26T12:48:11.326Z,1004
2017-04-26T12:49:13.143Z,1004.1
2017-04-26T12:50:14.951Z,1004.2
2017-04-26T12:51:16.772Z,1004.2
2017-04-26T12:52:18.600Z,1004.3
2017-04-26T12:53:20.409Z,1004.2
2017-04-26T12:54:22.215Z,1004.2
2017-04-26T12:55:24.025Z,1004.2
2017-04-26T12:56:25.839Z,1004.2
2017-04-26T12:57:27.643Z,1004.1
2017-04-26T12:58:29.455Z,1004.2
2017-04-26T12:59:31.271Z,1004.2